sensor_id;sensor_type;location;lat;lon;timestamp;P1;durP1;ratioP1;P2;durP2;ratioP2
54307;SDS011;40208;39.778;2.710;2024-03-08T00:01:12;22.33;;;2.97;;
54307;SDS011;40208;39.778;2.710;2024-03-08T00:03:58;26.88;;;3.42;;
54307;SDS011;40208;39.778;2.710;2024-03-08T00:06:43;20.65;;;3.75;;
54307;SDS011;40208;39.778;2.710;2024-03-08T00:09:30;20.75;;;3.42;;
54307;SDS011;40208;39.778;2.710;2024-03-08T00:12:15;19.40;;;3.80;;
54307;SDS011;40208;39.778;2.710;2024-03-08T00:15:00;21.42;;;3.38;;
54307;SDS011;40208;39.778;2.710;2024-03-08T00:17:46;19.17;;;3.60;;
54307;SDS011;40208;39.778;2.710;2024-03-08T00:20:31;19.88;;;2.88;;
54307;SDS011;40208;39.778;2.710;2024-03-08T00:23:18;26.58;;;3.67;;
54307;SDS011;40208;39.778;2.710;2024-03-08T00:26:03;21.67;;;3.38;;
54307;SDS011;40208;39.778;2.710;2024-03-08T00:28:48;23.40;;;3.67;;
54307;SDS011;40208;39.778;2.710;2024-03-08T00:31:34;24.42;;;3.13;;
54307;SDS011;40208;39.778;2.710;2024-03-08T00:34:20;22.73;;;3.53;;
54307;SDS011;40208;39.778;2.710;2024-03-08T00:37:05;26.15;;;3.95;;
54307;SDS011;40208;39.778;2.710;2024-03-08T00:39:50;22.05;;;3.40;;
54307;SDS011;40208;39.778;2.710;2024-03-08T00:42:37;15.43;;;3.15;;
54307;SDS011;40208;39.778;2.710;2024-03-08T00:45:22;19.55;;;3.95;;
54307;SDS011;40208;39.778;2.710;2024-03-08T00:48:08;27.15;;;4.82;;
54307;SDS011;40208;39.778;2.710;2024-03-08T00:50:54;25.80;;;4.80;;
54307;SDS011;40208;39.778;2.710;2024-03-08T00:53:39;19.38;;;5.38;;
54307;SDS011;40208;39.778;2.710;2024-03-08T00:56:24;23.35;;;4.32;;
54307;SDS011;40208;39.778;2.710;2024-03-08T00:59:11;17.48;;;3.70;;
54307;SDS011;40208;39.778;2.710;2024-03-08T01:01:56;24.00;;;3.97;;
54307;SDS011;40208;39.778;2.710;2024-03-08T01:04:42;24.23;;;4.40;;
54307;SDS011;40208;39.778;2.710;2024-03-08T01:07:27;34.70;;;7.05;;
54307;SDS011;40208;39.778;2.710;2024-03-08T01:10:12;36.65;;;4.72;;
54307;SDS011;40208;39.778;2.710;2024-03-08T01:12:57;28.40;;;4.63;;
54307;SDS011;40208;39.778;2.710;2024-03-08T01:15:43;22.80;;;4.25;;
54307;SDS011;40208;39.778;2.710;2024-03-08T01:18:30;22.83;;;4.55;;
54307;SDS011;40208;39.778;2.710;2024-03-08T01:21:15;36.75;;;5.63;;
54307;SDS011;40208;39.778;2.710;2024-03-08T01:24:00;19.02;;;4.57;;
54307;SDS011;40208;39.778;2.710;2024-03-08T01:26:45;25.20;;;3.78;;
54307;SDS011;40208;39.778;2.710;2024-03-08T01:29:31;24.25;;;4.75;;
54307;SDS011;40208;39.778;2.710;2024-03-08T01:32:17;39.72;;;5.18;;
54307;SDS011;40208;39.778;2.710;2024-03-08T01:35:03;29.85;;;5.55;;
54307;SDS011;40208;39.778;2.710;2024-03-08T01:37:49;23.48;;;4.78;;
54307;SDS011;40208;39.778;2.710;2024-03-08T01:40:34;32.25;;;4.85;;
54307;SDS011;40208;39.778;2.710;2024-03-08T01:43:19;28.80;;;4.22;;
54307;SDS011;40208;39.778;2.710;2024-03-08T01:46:05;23.83;;;4.90;;
54307;SDS011;40208;39.778;2.710;2024-03-08T01:48:51;27.52;;;4.22;;
54307;SDS011;40208;39.778;2.710;2024-03-08T01:51:37;32.50;;;5.15;;
54307;SDS011;40208;39.778;2.710;2024-03-08T01:54:25;40.00;;;4.82;;
54307;SDS011;40208;39.778;2.710;2024-03-08T01:57:11;26.85;;;5.32;;
54307;SDS011;40208;39.778;2.710;2024-03-08T01:59:56;21.10;;;4.97;;
54307;SDS011;40208;39.778;2.710;2024-03-08T02:02:42;31.55;;;4.32;;
54307;SDS011;40208;39.778;2.710;2024-03-08T02:05:28;33.58;;;5.32;;
54307;SDS011;40208;39.778;2.710;2024-03-08T02:08:14;26.05;;;4.80;;
54307;SDS011;40208;39.778;2.710;2024-03-08T02:11:00;33.90;;;4.97;;
54307;SDS011;40208;39.778;2.710;2024-03-08T02:13:46;25.38;;;4.45;;
54307;SDS011;40208;39.778;2.710;2024-03-08T02:16:32;30.40;;;5.97;;
54307;SDS011;40208;39.778;2.710;2024-03-08T02:19:17;32.42;;;4.57;;
54307;SDS011;40208;39.778;2.710;2024-03-08T02:22:04;26.02;;;4.38;;
54307;SDS011;40208;39.778;2.710;2024-03-08T02:24:50;28.50;;;4.57;;
54307;SDS011;40208;39.778;2.710;2024-03-08T02:27:35;23.27;;;3.72;;
54307;SDS011;40208;39.778;2.710;2024-03-08T02:30:21;22.38;;;3.90;;
54307;SDS011;40208;39.778;2.710;2024-03-08T02:33:06;32.60;;;4.03;;
54307;SDS011;40208;39.778;2.710;2024-03-08T02:35:54;36.88;;;3.92;;
54307;SDS011;40208;39.778;2.710;2024-03-08T02:38:39;27.38;;;4.88;;
54307;SDS011;40208;39.778;2.710;2024-03-08T02:41:25;25.25;;;4.13;;
54307;SDS011;40208;39.778;2.710;2024-03-08T02:44:11;25.33;;;4.25;;
54307;SDS011;40208;39.778;2.710;2024-03-08T02:46:56;35.45;;;5.38;;
54307;SDS011;40208;39.778;2.710;2024-03-08T02:49:41;22.63;;;3.63;;
54307;SDS011;40208;39.778;2.710;2024-03-08T02:52:26;21.45;;;3.15;;
54307;SDS011;40208;39.778;2.710;2024-03-08T02:55:11;20.65;;;3.78;;
54307;SDS011;40208;39.778;2.710;2024-03-08T02:57:59;19.13;;;3.03;;
54307;SDS011;40208;39.778;2.710;2024-03-08T03:00:45;24.95;;;3.75;;
54307;SDS011;40208;39.778;2.710;2024-03-08T03:03:29;22.05;;;4.40;;
54307;SDS011;40208;39.778;2.710;2024-03-08T03:06:15;25.08;;;3.92;;
54307;SDS011;40208;39.778;2.710;2024-03-08T03:09:00;22.23;;;3.45;;
54307;SDS011;40208;39.778;2.710;2024-03-08T03:11:45;21.48;;;4.45;;
54307;SDS011;40208;39.778;2.710;2024-03-08T03:14:30;28.35;;;4.00;;
54307;SDS011;40208;39.778;2.710;2024-03-08T03:17:15;19.70;;;3.08;;
54307;SDS011;40208;39.778;2.710;2024-03-08T03:20:01;18.30;;;3.15;;
54307;SDS011;40208;39.778;2.710;2024-03-08T03:22:53;30.70;;;3.33;;
54307;SDS011;40208;39.778;2.710;2024-03-08T03:25:41;18.13;;;3.55;;
54307;SDS011;40208;39.778;2.710;2024-03-08T03:28:26;15.38;;;3.13;;
54307;SDS011;40208;39.778;2.710;2024-03-08T03:31:12;29.40;;;4.25;;
54307;SDS011;40208;39.778;2.710;2024-03-08T03:33:59;17.23;;;3.70;;
54307;SDS011;40208;39.778;2.710;2024-03-08T03:36:46;23.55;;;3.15;;
54307;SDS011;40208;39.778;2.710;2024-03-08T03:39:31;17.35;;;3.25;;
54307;SDS011;40208;39.778;2.710;2024-03-08T03:42:16;22.45;;;4.03;;
54307;SDS011;40208;39.778;2.710;2024-03-08T03:45:00;23.95;;;3.28;;
54307;SDS011;40208;39.778;2.710;2024-03-08T03:47:48;17.23;;;3.15;;
54307;SDS011;40208;39.778;2.710;2024-03-08T03:50:32;21.02;;;3.03;;
54307;SDS011;40208;39.778;2.710;2024-03-08T03:53:20;19.85;;;3.33;;
54307;SDS011;40208;39.778;2.710;2024-03-08T03:56:05;15.82;;;3.13;;
54307;SDS011;40208;39.778;2.710;2024-03-08T03:58:51;18.73;;;2.85;;
54307;SDS011;40208;39.778;2.710;2024-03-08T04:01:35;23.90;;;3.58;;
54307;SDS011;40208;39.778;2.710;2024-03-08T04:04:20;20.15;;;3.08;;
54307;SDS011;40208;39.778;2.710;2024-03-08T04:07:06;19.05;;;2.45;;
54307;SDS011;40208;39.778;2.710;2024-03-08T04:09:51;13.57;;;2.40;;
54307;SDS011;40208;39.778;2.710;2024-03-08T04:12:35;18.08;;;3.47;;
54307;SDS011;40208;39.778;2.710;2024-03-08T04:15:20;15.20;;;2.55;;
54307;SDS011;40208;39.778;2.710;2024-03-08T04:18:05;8.65;;;2.05;;
54307;SDS011;40208;39.778;2.710;2024-03-08T04:20:50;14.60;;;3.22;;
54307;SDS011;40208;39.778;2.710;2024-03-08T04:23:34;15.10;;;3.60;;
54307;SDS011;40208;39.778;2.710;2024-03-08T04:26:19;12.77;;;2.97;;
54307;SDS011;40208;39.778;2.710;2024-03-08T04:29:04;17.60;;;4.53;;
54307;SDS011;40208;39.778;2.710;2024-03-08T04:31:50;17.70;;;4.72;;
54307;SDS011;40208;39.778;2.710;2024-03-08T04:34:38;19.08;;;6.20;;
54307;SDS011;40208;39.778;2.710;2024-03-08T04:37:22;18.90;;;6.75;;
54307;SDS011;40208;39.778;2.710;2024-03-08T04:40:08;16.67;;;3.30;;
54307;SDS011;40208;39.778;2.710;2024-03-08T04:42:53;13.52;;;3.45;;
54307;SDS011;40208;39.778;2.710;2024-03-08T04:45:38;7.53;;;2.63;;
54307;SDS011;40208;39.778;2.710;2024-03-08T04:48:23;8.68;;;2.35;;
54307;SDS011;40208;39.778;2.710;2024-03-08T04:51:10;12.13;;;4.10;;
54307;SDS011;40208;39.778;2.710;2024-03-08T04:53:55;11.15;;;3.33;;
54307;SDS011;40208;39.778;2.710;2024-03-08T04:56:43;8.57;;;2.75;;
54307;SDS011;40208;39.778;2.710;2024-03-08T04:59:27;10.00;;;2.45;;
54307;SDS011;40208;39.778;2.710;2024-03-08T05:02:12;8.68;;;2.47;;
54307;SDS011;40208;39.778;2.710;2024-03-08T05:04:58;9.10;;;2.67;;
54307;SDS011;40208;39.778;2.710;2024-03-08T05:07:43;4.78;;;1.73;;
54307;SDS011;40208;39.778;2.710;2024-03-08T05:10:29;12.32;;;2.47;;
54307;SDS011;40208;39.778;2.710;2024-03-08T05:13:14;9.57;;;1.77;;
54307;SDS011;40208;39.778;2.710;2024-03-08T05:16:00;5.57;;;1.73;;
54307;SDS011;40208;39.778;2.710;2024-03-08T05:18:45;6.68;;;1.30;;
54307;SDS011;40208;39.778;2.710;2024-03-08T05:21:31;9.90;;;1.77;;
54307;SDS011;40208;39.778;2.710;2024-03-08T05:24:16;7.70;;;2.20;;
54307;SDS011;40208;39.778;2.710;2024-03-08T05:27:01;7.32;;;1.70;;
54307;SDS011;40208;39.778;2.710;2024-03-08T05:29:47;6.80;;;1.50;;
54307;SDS011;40208;39.778;2.710;2024-03-08T05:32:32;5.18;;;1.33;;
54307;SDS011;40208;39.778;2.710;2024-03-08T05:35:17;9.90;;;1.88;;
54307;SDS011;40208;39.778;2.710;2024-03-08T05:38:02;7.75;;;1.88;;
54307;SDS011;40208;39.778;2.710;2024-03-08T05:40:48;5.68;;;2.20;;
54307;SDS011;40208;39.778;2.710;2024-03-08T05:43:33;11.80;;;1.60;;
54307;SDS011;40208;39.778;2.710;2024-03-08T05:46:17;7.97;;;1.88;;
54307;SDS011;40208;39.778;2.710;2024-03-08T05:49:03;8.80;;;1.65;;
54307;SDS011;40208;39.778;2.710;2024-03-08T05:51:49;5.65;;;1.70;;
54307;SDS011;40208;39.778;2.710;2024-03-08T05:54:34;6.55;;;1.52;;
54307;SDS011;40208;39.778;2.710;2024-03-08T05:57:18;4.97;;;1.35;;
54307;SDS011;40208;39.778;2.710;2024-03-08T06:00:03;3.67;;;1.10;;
54307;SDS011;40208;39.778;2.710;2024-03-08T06:02:48;3.33;;;1.25;;
54307;SDS011;40208;39.778;2.710;2024-03-08T06:05:33;15.23;;;2.00;;
54307;SDS011;40208;39.778;2.710;2024-03-08T06:08:18;10.50;;;1.95;;
54307;SDS011;40208;39.778;2.710;2024-03-08T06:11:03;10.32;;;1.67;;
54307;SDS011;40208;39.778;2.710;2024-03-08T06:13:49;16.25;;;1.77;;
54307;SDS011;40208;39.778;2.710;2024-03-08T06:16:34;18.45;;;2.17;;
54307;SDS011;40208;39.778;2.710;2024-03-08T06:19:20;13.57;;;1.92;;
54307;SDS011;40208;39.778;2.710;2024-03-08T06:22:05;12.43;;;2.03;;
54307;SDS011;40208;39.778;2.710;2024-03-08T06:24:50;12.93;;;2.00;;
54307;SDS011;40208;39.778;2.710;2024-03-08T06:27:35;12.77;;;2.10;;
54307;SDS011;40208;39.778;2.710;2024-03-08T06:30:20;17.73;;;2.30;;
54307;SDS011;40208;39.778;2.710;2024-03-08T06:33:05;20.10;;;3.03;;
54307;SDS011;40208;39.778;2.710;2024-03-08T06:35:52;13.80;;;2.10;;
54307;SDS011;40208;39.778;2.710;2024-03-08T06:38:39;14.65;;;1.85;;
54307;SDS011;40208;39.778;2.710;2024-03-08T06:41:30;14.55;;;2.47;;
54307;SDS011;40208;39.778;2.710;2024-03-08T06:44:16;8.65;;;1.75;;
54307;SDS011;40208;39.778;2.710;2024-03-08T06:47:00;8.70;;;1.70;;
54307;SDS011;40208;39.778;2.710;2024-03-08T06:49:46;7.13;;;1.52;;
54307;SDS011;40208;39.778;2.710;2024-03-08T06:52:31;14.45;;;2.15;;
54307;SDS011;40208;39.778;2.710;2024-03-08T06:55:16;11.50;;;1.88;;
54307;SDS011;40208;39.778;2.710;2024-03-08T06:58:02;10.50;;;1.67;;
54307;SDS011;40208;39.778;2.710;2024-03-08T07:00:47;10.25;;;1.98;;
54307;SDS011;40208;39.778;2.710;2024-03-08T07:03:36;14.00;;;2.05;;
54307;SDS011;40208;39.778;2.710;2024-03-08T07:06:21;9.73;;;2.17;;
54307;SDS011;40208;39.778;2.710;2024-03-08T07:09:05;17.58;;;2.08;;
54307;SDS011;40208;39.778;2.710;2024-03-08T07:11:50;17.65;;;2.10;;
54307;SDS011;40208;39.778;2.710;2024-03-08T07:14:39;10.48;;;1.95;;
54307;SDS011;40208;39.778;2.710;2024-03-08T07:17:28;11.00;;;2.23;;
54307;SDS011;40208;39.778;2.710;2024-03-08T07:20:13;11.90;;;1.42;;
54307;SDS011;40208;39.778;2.710;2024-03-08T07:23:00;10.00;;;1.58;;
54307;SDS011;40208;39.778;2.710;2024-03-08T07:25:44;4.38;;;1.08;;
54307;SDS011;40208;39.778;2.710;2024-03-08T07:28:29;2.30;;;1.15;;
54307;SDS011;40208;39.778;2.710;2024-03-08T07:31:14;5.93;;;1.25;;
54307;SDS011;40208;39.778;2.710;2024-03-08T07:33:59;2.30;;;0.50;;
54307;SDS011;40208;39.778;2.710;2024-03-08T07:36:43;4.10;;;0.60;;
54307;SDS011;40208;39.778;2.710;2024-03-08T07:39:28;2.55;;;0.90;;
54307;SDS011;40208;39.778;2.710;2024-03-08T07:42:13;1.95;;;0.60;;
54307;SDS011;40208;39.778;2.710;2024-03-08T07:44:58;5.07;;;1.20;;
54307;SDS011;40208;39.778;2.710;2024-03-08T07:47:44;2.53;;;0.35;;
54307;SDS011;40208;39.778;2.710;2024-03-08T07:50:28;1.52;;;0.30;;
54307;SDS011;40208;39.778;2.710;2024-03-08T07:53:13;3.53;;;0.63;;
54307;SDS011;40208;39.778;2.710;2024-03-08T07:55:59;0.80;;;0.43;;
54307;SDS011;40208;39.778;2.710;2024-03-08T07:58:44;3.40;;;0.80;;
54307;SDS011;40208;39.778;2.710;2024-03-08T08:01:29;3.67;;;0.82;;
54307;SDS011;40208;39.778;2.710;2024-03-08T08:04:14;1.23;;;0.45;;
54307;SDS011;40208;39.778;2.710;2024-03-08T08:07:03;1.25;;;0.50;;
54307;SDS011;40208;39.778;2.710;2024-03-08T08:09:48;0.90;;;0.40;;
54307;SDS011;40208;39.778;2.710;2024-03-08T08:12:33;4.85;;;0.50;;
54307;SDS011;40208;39.778;2.710;2024-03-08T08:15:18;4.82;;;0.80;;
54307;SDS011;40208;39.778;2.710;2024-03-08T08:18:03;3.50;;;0.63;;
54307;SDS011;40208;39.778;2.710;2024-03-08T08:20:49;7.53;;;3.85;;
54307;SDS011;40208;39.778;2.710;2024-03-08T08:23:34;18.70;;;9.95;;
54307;SDS011;40208;39.778;2.710;2024-03-08T08:26:19;14.93;;;7.05;;
54307;SDS011;40208;39.778;2.710;2024-03-08T08:29:05;9.52;;;4.30;;
54307;SDS011;40208;39.778;2.710;2024-03-08T08:31:50;12.05;;;2.17;;
54307;SDS011;40208;39.778;2.710;2024-03-08T08:34:35;10.23;;;1.63;;
54307;SDS011;40208;39.778;2.710;2024-03-08T08:37:20;5.63;;;1.17;;
54307;SDS011;40208;39.778;2.710;2024-03-08T08:40:08;7.38;;;1.38;;
54307;SDS011;40208;39.778;2.710;2024-03-08T08:42:54;5.30;;;1.35;;
54307;SDS011;40208;39.778;2.710;2024-03-08T08:45:42;5.32;;;1.58;;
54307;SDS011;40208;39.778;2.710;2024-03-08T08:48:27;5.78;;;2.45;;
54307;SDS011;40208;39.778;2.710;2024-03-08T08:51:14;5.15;;;1.42;;
54307;SDS011;40208;39.778;2.710;2024-03-08T08:53:59;11.43;;;3.00;;
54307;SDS011;40208;39.778;2.710;2024-03-08T08:56:44;20.33;;;4.93;;
54307;SDS011;40208;39.778;2.710;2024-03-08T08:59:29;27.85;;;4.03;;
54307;SDS011;40208;39.778;2.710;2024-03-08T09:02:14;18.08;;;4.13;;
54307;SDS011;40208;39.778;2.710;2024-03-08T09:05:01;11.32;;;1.65;;
54307;SDS011;40208;39.778;2.710;2024-03-08T09:07:46;10.23;;;2.38;;
54307;SDS011;40208;39.778;2.710;2024-03-08T09:10:31;11.52;;;2.47;;
54307;SDS011;40208;39.778;2.710;2024-03-08T09:13:15;5.45;;;2.20;;
54307;SDS011;40208;39.778;2.710;2024-03-08T09:16:01;5.82;;;1.33;;
54307;SDS011;40208;39.778;2.710;2024-03-08T09:18:47;8.30;;;1.73;;
54307;SDS011;40208;39.778;2.710;2024-03-08T09:21:33;5.55;;;1.38;;
54307;SDS011;40208;39.778;2.710;2024-03-08T09:24:19;9.82;;;1.90;;
54307;SDS011;40208;39.778;2.710;2024-03-08T09:27:05;5.50;;;1.25;;
54307;SDS011;40208;39.778;2.710;2024-03-08T09:29:50;4.53;;;1.20;;
54307;SDS011;40208;39.778;2.710;2024-03-08T09:32:35;4.07;;;1.67;;
54307;SDS011;40208;39.778;2.710;2024-03-08T09:35:21;5.07;;;1.48;;
54307;SDS011;40208;39.778;2.710;2024-03-08T09:38:06;6.75;;;1.50;;
54307;SDS011;40208;39.778;2.710;2024-03-08T09:40:55;4.60;;;1.20;;
54307;SDS011;40208;39.778;2.710;2024-03-08T09:43:41;2.88;;;1.02;;
54307;SDS011;40208;39.778;2.710;2024-03-08T09:46:26;7.05;;;1.60;;
54307;SDS011;40208;39.778;2.710;2024-03-08T09:49:11;8.13;;;1.85;;
54307;SDS011;40208;39.778;2.710;2024-03-08T09:51:56;6.15;;;1.63;;
54307;SDS011;40208;39.778;2.710;2024-03-08T09:54:41;6.55;;;1.65;;
54307;SDS011;40208;39.778;2.710;2024-03-08T09:57:28;7.60;;;1.75;;
54307;SDS011;40208;39.778;2.710;2024-03-08T10:00:14;6.00;;;1.17;;
54307;SDS011;40208;39.778;2.710;2024-03-08T10:03:08;5.00;;;1.60;;
54307;SDS011;40208;39.778;2.710;2024-03-08T10:05:56;6.40;;;1.55;;
54307;SDS011;40208;39.778;2.710;2024-03-08T10:08:45;12.23;;;2.78;;
54307;SDS011;40208;39.778;2.710;2024-03-08T10:11:30;9.23;;;2.22;;
54307;SDS011;40208;39.778;2.710;2024-03-08T10:14:15;11.30;;;2.00;;
54307;SDS011;40208;39.778;2.710;2024-03-08T10:17:00;9.05;;;2.00;;
54307;SDS011;40208;39.778;2.710;2024-03-08T10:19:49;8.20;;;2.00;;
54307;SDS011;40208;39.778;2.710;2024-03-08T10:25:22;4.40;;;1.42;;
54307;SDS011;40208;39.778;2.710;2024-03-08T10:28:08;11.55;;;2.30;;
54307;SDS011;40208;39.778;2.710;2024-03-08T10:30:55;6.80;;;1.73;;
54307;SDS011;40208;39.778;2.710;2024-03-08T10:33:43;6.27;;;1.40;;
54307;SDS011;40208;39.778;2.710;2024-03-08T10:36:28;3.13;;;1.25;;
54307;SDS011;40208;39.778;2.710;2024-03-08T10:39:20;8.55;;;1.92;;
54307;SDS011;40208;39.778;2.710;2024-03-08T10:42:08;11.20;;;1.58;;
54307;SDS011;40208;39.778;2.710;2024-03-08T10:45:05;5.90;;;1.33;;
54307;SDS011;40208;39.778;2.710;2024-03-08T10:51:20;4.60;;;1.40;;
54307;SDS011;40208;39.778;2.710;2024-03-08T10:54:05;4.13;;;1.25;;
54307;SDS011;40208;39.778;2.710;2024-03-08T10:56:51;3.80;;;1.02;;
54307;SDS011;40208;39.778;2.710;2024-03-08T10:59:36;5.97;;;1.45;;
54307;SDS011;40208;39.778;2.710;2024-03-08T11:02:22;7.18;;;1.20;;
54307;SDS011;40208;39.778;2.710;2024-03-08T11:05:09;2.97;;;1.10;;
54307;SDS011;40208;39.778;2.710;2024-03-08T11:08:00;3.70;;;1.33;;
54307;SDS011;40208;39.778;2.710;2024-03-08T11:10:46;5.65;;;1.33;;
54307;SDS011;40208;39.778;2.710;2024-03-08T11:13:40;6.15;;;1.38;;
54307;SDS011;40208;39.778;2.710;2024-03-08T11:22:01;8.07;;;1.55;;
54307;SDS011;40208;39.778;2.710;2024-03-08T11:24:47;5.25;;;1.40;;
54307;SDS011;40208;39.778;2.710;2024-03-08T11:27:33;5.35;;;1.10;;
54307;SDS011;40208;39.778;2.710;2024-03-08T11:30:17;5.00;;;0.93;;
54307;SDS011;40208;39.778;2.710;2024-03-08T11:33:11;7.32;;;1.10;;
54307;SDS011;40208;39.778;2.710;2024-03-08T11:38:56;5.18;;;0.95;;
54307;SDS011;40208;39.778;2.710;2024-03-08T11:41:42;6.38;;;1.65;;
54307;SDS011;40208;39.778;2.710;2024-03-08T11:44:29;6.05;;;1.40;;
54307;SDS011;40208;39.778;2.710;2024-03-08T11:47:16;11.45;;;1.25;;
54307;SDS011;40208;39.778;2.710;2024-03-08T11:50:00;6.05;;;1.98;;
54307;SDS011;40208;39.778;2.710;2024-03-08T11:52:47;9.18;;;1.10;;
54307;SDS011;40208;39.778;2.710;2024-03-08T11:55:33;6.93;;;1.13;;
54307;SDS011;40208;39.778;2.710;2024-03-08T11:58:20;3.15;;;0.80;;
54307;SDS011;40208;39.778;2.710;2024-03-08T12:01:05;5.00;;;0.90;;
54307;SDS011;40208;39.778;2.710;2024-03-08T12:03:56;3.42;;;0.85;;
54307;SDS011;40208;39.778;2.710;2024-03-08T12:06:44;3.42;;;0.73;;
54307;SDS011;40208;39.778;2.710;2024-03-08T12:09:32;5.55;;;0.93;;
54307;SDS011;40208;39.778;2.710;2024-03-08T12:12:17;2.88;;;1.10;;
54307;SDS011;40208;39.778;2.710;2024-03-08T12:15:03;2.83;;;0.70;;
54307;SDS011;40208;39.778;2.710;2024-03-08T12:17:49;4.43;;;0.90;;
54307;SDS011;40208;39.778;2.710;2024-03-08T12:20:35;2.28;;;0.68;;
54307;SDS011;40208;39.778;2.710;2024-03-08T12:23:22;2.85;;;0.52;;
54307;SDS011;40208;39.778;2.710;2024-03-08T12:26:11;5.55;;;2.75;;
54307;SDS011;40208;39.778;2.710;2024-03-08T12:32:11;22.13;;;11.60;;
54307;SDS011;40208;39.778;2.710;2024-03-08T12:34:57;23.35;;;12.43;;
54307;SDS011;40208;39.778;2.710;2024-03-08T12:37:42;15.95;;;9.50;;
54307;SDS011;40208;39.778;2.710;2024-03-08T12:40:27;10.23;;;5.43;;
54307;SDS011;40208;39.778;2.710;2024-03-08T12:43:16;7.17;;;3.70;;
54307;SDS011;40208;39.778;2.710;2024-03-08T12:46:02;4.57;;;2.17;;
54307;SDS011;40208;39.778;2.710;2024-03-08T12:48:48;6.35;;;1.92;;
54307;SDS011;40208;39.778;2.710;2024-03-08T12:51:33;6.85;;;1.75;;
54307;SDS011;40208;39.778;2.710;2024-03-08T12:54:18;2.63;;;1.48;;
54307;SDS011;40208;39.778;2.710;2024-03-08T12:57:07;4.72;;;1.70;;
54307;SDS011;40208;39.778;2.710;2024-03-08T12:59:52;6.90;;;2.00;;
54307;SDS011;40208;39.778;2.710;2024-03-08T13:02:41;7.65;;;2.17;;
54307;SDS011;40208;39.778;2.710;2024-03-08T13:05:26;16.67;;;2.38;;
54307;SDS011;40208;39.778;2.710;2024-03-08T13:08:11;14.00;;;2.97;;
54307;SDS011;40208;39.778;2.710;2024-03-08T13:10:57;11.60;;;4.78;;
54307;SDS011;40208;39.778;2.710;2024-03-08T13:13:43;13.82;;;8.38;;
54307;SDS011;40208;39.778;2.710;2024-03-08T13:16:28;31.63;;;4.95;;
54307;SDS011;40208;39.778;2.710;2024-03-08T13:19:14;8.70;;;2.30;;
54307;SDS011;40208;39.778;2.710;2024-03-08T13:21:58;7.03;;;2.22;;
54307;SDS011;40208;39.778;2.710;2024-03-08T13:24:43;6.10;;;1.50;;
54307;SDS011;40208;39.778;2.710;2024-03-08T13:27:29;3.83;;;1.20;;
54307;SDS011;40208;39.778;2.710;2024-03-08T13:30:14;5.70;;;1.10;;
54307;SDS011;40208;39.778;2.710;2024-03-08T13:33:02;5.53;;;1.60;;
54307;SDS011;40208;39.778;2.710;2024-03-08T13:35:49;5.15;;;1.33;;
54307;SDS011;40208;39.778;2.710;2024-03-08T13:38:35;4.55;;;1.52;;
54307;SDS011;40208;39.778;2.710;2024-03-08T13:41:20;3.53;;;1.02;;
54307;SDS011;40208;39.778;2.710;2024-03-08T13:44:08;5.57;;;1.15;;
54307;SDS011;40208;39.778;2.710;2024-03-08T13:46:54;6.18;;;1.75;;
54307;SDS011;40208;39.778;2.710;2024-03-08T13:49:42;4.60;;;1.20;;
54307;SDS011;40208;39.778;2.710;2024-03-08T13:52:28;3.92;;;0.90;;
54307;SDS011;40208;39.778;2.710;2024-03-08T13:55:13;4.15;;;1.10;;
54307;SDS011;40208;39.778;2.710;2024-03-08T13:57:59;4.35;;;1.00;;
54307;SDS011;40208;39.778;2.710;2024-03-08T14:00:44;6.40;;;1.52;;
54307;SDS011;40208;39.778;2.710;2024-03-08T14:03:31;2.55;;;0.80;;
54307;SDS011;40208;39.778;2.710;2024-03-08T14:06:17;4.07;;;0.80;;
54307;SDS011;40208;39.778;2.710;2024-03-08T14:09:02;7.38;;;1.30;;
54307;SDS011;40208;39.778;2.710;2024-03-08T14:11:47;7.25;;;1.17;;
54307;SDS011;40208;39.778;2.710;2024-03-08T14:14:31;5.55;;;1.02;;
54307;SDS011;40208;39.778;2.710;2024-03-08T14:17:18;7.63;;;1.42;;
54307;SDS011;40208;39.778;2.710;2024-03-08T14:20:03;5.72;;;1.33;;
54307;SDS011;40208;39.778;2.710;2024-03-08T14:22:48;3.28;;;0.90;;
54307;SDS011;40208;39.778;2.710;2024-03-08T14:25:35;5.47;;;1.45;;
54307;SDS011;40208;39.778;2.710;2024-03-08T14:28:20;6.32;;;1.30;;
54307;SDS011;40208;39.778;2.710;2024-03-08T14:31:06;4.20;;;1.13;;
54307;SDS011;40208;39.778;2.710;2024-03-08T14:33:56;9.20;;;1.50;;
54307;SDS011;40208;39.778;2.710;2024-03-08T14:36:43;4.47;;;1.40;;
54307;SDS011;40208;39.778;2.710;2024-03-08T14:39:29;3.95;;;1.52;;
54307;SDS011;40208;39.778;2.710;2024-03-08T14:42:13;8.55;;;2.53;;
54307;SDS011;40208;39.778;2.710;2024-03-08T14:44:59;7.15;;;2.03;;
54307;SDS011;40208;39.778;2.710;2024-03-08T14:47:44;5.82;;;1.60;;
54307;SDS011;40208;39.778;2.710;2024-03-08T14:50:35;5.05;;;1.35;;
54307;SDS011;40208;39.778;2.710;2024-03-08T14:53:21;8.10;;;1.83;;
54307;SDS011;40208;39.778;2.710;2024-03-08T14:56:08;4.55;;;1.38;;
54307;SDS011;40208;39.778;2.710;2024-03-08T14:58:53;5.57;;;1.10;;
54307;SDS011;40208;39.778;2.710;2024-03-08T15:01:37;3.97;;;0.95;;
54307;SDS011;40208;39.778;2.710;2024-03-08T15:04:22;5.10;;;1.20;;
54307;SDS011;40208;39.778;2.710;2024-03-08T15:07:08;4.53;;;1.00;;
54307;SDS011;40208;39.778;2.710;2024-03-08T15:09:54;4.40;;;0.82;;
54307;SDS011;40208;39.778;2.710;2024-03-08T15:12:40;3.40;;;1.00;;
54307;SDS011;40208;39.778;2.710;2024-03-08T15:15:25;2.67;;;0.80;;
54307;SDS011;40208;39.778;2.710;2024-03-08T15:18:10;2.97;;;0.80;;
54307;SDS011;40208;39.778;2.710;2024-03-08T15:20:56;8.18;;;0.95;;
54307;SDS011;40208;39.778;2.710;2024-03-08T15:23:41;3.00;;;0.93;;
54307;SDS011;40208;39.778;2.710;2024-03-08T15:26:30;4.43;;;1.02;;
54307;SDS011;40208;39.778;2.710;2024-03-08T15:29:16;4.68;;;1.27;;
54307;SDS011;40208;39.778;2.710;2024-03-08T15:32:07;6.63;;;1.40;;
54307;SDS011;40208;39.778;2.710;2024-03-08T15:34:54;3.25;;;0.85;;
54307;SDS011;40208;39.778;2.710;2024-03-08T15:37:42;3.80;;;1.65;;
54307;SDS011;40208;39.778;2.710;2024-03-08T15:43:15;3.85;;;0.90;;
54307;SDS011;40208;39.778;2.710;2024-03-08T15:46:00;3.35;;;1.05;;
54307;SDS011;40208;39.778;2.710;2024-03-08T15:48:48;2.13;;;0.80;;
54307;SDS011;40208;39.778;2.710;2024-03-08T15:51:34;6.03;;;1.10;;
54307;SDS011;40208;39.778;2.710;2024-03-08T15:54:20;3.35;;;0.90;;
54307;SDS011;40208;39.778;2.710;2024-03-08T15:57:05;6.63;;;1.35;;
54307;SDS011;40208;39.778;2.710;2024-03-08T15:59:57;4.03;;;1.20;;
54307;SDS011;40208;39.778;2.710;2024-03-08T16:02:44;3.95;;;0.77;;
54307;SDS011;40208;39.778;2.710;2024-03-08T16:05:29;1.77;;;0.40;;
54307;SDS011;40208;39.778;2.710;2024-03-08T16:08:14;3.40;;;0.90;;
54307;SDS011;40208;39.778;2.710;2024-03-08T16:11:01;5.85;;;1.15;;
54307;SDS011;40208;39.778;2.710;2024-03-08T16:13:50;3.63;;;1.33;;
54307;SDS011;40208;39.778;2.710;2024-03-08T16:16:35;4.85;;;0.88;;
54307;SDS011;40208;39.778;2.710;2024-03-08T16:19:20;3.88;;;1.10;;
54307;SDS011;40208;39.778;2.710;2024-03-08T16:22:07;7.03;;;1.40;;
54307;SDS011;40208;39.778;2.710;2024-03-08T16:24:52;5.05;;;1.02;;
54307;SDS011;40208;39.778;2.710;2024-03-08T16:27:38;5.35;;;1.20;;
54307;SDS011;40208;39.778;2.710;2024-03-08T16:30:26;9.95;;;1.10;;
54307;SDS011;40208;39.778;2.710;2024-03-08T16:33:11;3.17;;;0.90;;
54307;SDS011;40208;39.778;2.710;2024-03-08T16:35:57;3.60;;;0.85;;
54307;SDS011;40208;39.778;2.710;2024-03-08T16:38:42;11.38;;;1.45;;
54307;SDS011;40208;39.778;2.710;2024-03-08T16:41:30;3.05;;;0.90;;
54307;SDS011;40208;39.778;2.710;2024-03-08T16:44:16;4.43;;;1.05;;
54307;SDS011;40208;39.778;2.710;2024-03-08T16:47:03;6.80;;;1.42;;
54307;SDS011;40208;39.778;2.710;2024-03-08T16:49:49;14.25;;;1.70;;
54307;SDS011;40208;39.778;2.710;2024-03-08T16:52:34;4.78;;;1.05;;